Time;durP1;ratioP1;P1;durP2;ratioP2;P2;SDS_P1;SDS_P2;PMS_P1;PMS_P2;Temp;Humidity;BMP_temperature;BMP_pressure;BME280_temperature;BME280_humidity;BME280_pressure;Samples;Min_cycle;Max_cycle;Signal;HPM_P1;HPM_P2
2022/08/30 00:03:17;;;;;;;15.95;5.18;;;;;;;24.25;52.98;98696.22;5167188;27;20078;-72
2022/08/30 00:05:43;;;;;;;15.43;5.32;;;;;;;24.18;53.70;98706.31;5168032;27;20026;-69
2022/08/30 00:08:10;;;;;;;13.65;4.72;;;;;;;24.06;53.81;98709.78;5167759;27;20181;-70
2022/08/30 00:10:36;;;;;;;13.65;4.82;;;;;;;24.07;54.05;98706.03;5168844;27;20046;-70
2022/08/30 00:13:02;;;;;;;22.23;4.90;;;;;;;24.05;54.32;98716.22;5166501;27;20242;-69
2022/08/30 00:15:28;;;;;;;12.65;4.93;;;;;;;24.06;54.34;98711.66;5167305;27;20050;-69
2022/08/30 00:17:55;;;;;;;12.82;5.00;;;;;;;24.04;54.34;98708.38;5167501;27;20243;-67
2022/08/30 00:20:24;;;;;;;16.13;5.00;;;;;;;24.01;53.55;98712.38;5166430;27;20019;-67
2022/08/30 00:22:50;;;;;;;18.95;5.63;;;;;;;24.04;53.64;98705.66;5147956;28;20243;-68
2022/08/30 00:25:15;;;;;;;12.43;4.68;;;;;;;24.04;53.54;98701.06;5136668;27;20014;-67
2022/08/30 00:27:42;;;;;;;15.32;4.65;;;;;;;24.05;54.23;98705.41;5170906;27;20026;-67
2022/08/30 00:30:09;;;;;;;17.73;5.25;;;;;;;24.01;54.27;98703.41;5171624;27;20067;-68
2022/08/30 00:32:34;;;;;;;13.15;4.38;;;;;;;24.05;53.49;98713.53;5167337;27;20042;-67
2022/08/30 00:35:00;;;;;;;9.23;4.47;;;;;;;24.04;53.45;98703.78;5170454;27;20033;-68
2022/08/30 00:37:26;;;;;;;7.10;4.32;;;;;;;24.06;53.30;98704.38;5172267;27;20026;-66
2022/08/30 00:39:52;;;;;;;14.02;5.22;;;;;;;24.10;53.37;98699.34;5171694;27;20059;-67
2022/08/30 00:42:19;;;;;;;11.23;6.20;;;;;;;24.08;53.93;98706.88;5172371;27;20030;-66
2022/08/30 00:44:45;;;;;;;14.23;4.60;;;;;;;24.06;53.81;98704.38;5170068;27;20033;-67
2022/08/30 00:47:10;;;;;;;14.70;5.75;;;;;;;24.03;54.60;98694.03;5156777;27;20136;-71
2022/08/30 00:49:41;;;;;;;9.88;3.92;;;;;;;23.98;54.14;98691.19;5168968;27;20033;-67
2022/08/30 00:52:07;;;;;;;8.23;4.07;;;;;;;23.99;53.94;98698.25;5172212;27;20243;-68
2022/08/30 00:54:36;;;;;;;11.27;4.57;;;;;;;24.04;53.96;98690.25;5169903;27;20030;-68
2022/08/30 00:57:02;;;;;;;14.32;5.28;;;;;;;24.02;54.14;98696.97;5171894;27;20033;-68
2022/08/30 00:59:29;;;;;;;15.32;5.15;;;;;;;23.97;53.83;98692.25;5152761;27;20147;-67
2022/08/30 01:01:55;;;;;;;14.52;4.43;;;;;;;24.02;54.14;98691.56;5171294;27;20037;-68
2022/08/30 01:04:25;;;;;;;13.20;5.97;;;;;;;24.02;54.01;98694.25;5171721;27;20027;-67
2022/08/30 01:06:52;;;;;;;14.68;5.13;;;;;;;24.05;53.77;98688.41;5171771;27;20116;-67
2022/08/30 01:09:18;;;;;;;11.57;4.78;;;;;;;24.07;53.95;98683.59;5171778;27;20023;-69
2022/08/30 01:11:45;;;;;;;8.88;4.35;;;;;;;24.04;53.71;98687.56;5171211;27;20026;-68
2022/08/30 01:14:12;;;;;;;15.13;4.97;;;;;;;24.07;53.71;98686.28;5171184;27;20255;-69
2022/08/30 01:16:40;;;;;;;12.25;5.28;;;;;;;24.04;54.15;98692.97;5171328;27;20034;-69
2022/08/30 01:19:17;;;;;;;12.65;5.47;;;;;;;23.95;54.21;98688.91;5171562;27;20037;-68
2022/08/30 01:21:48;;;;;;;17.98;5.93;;;;;;;23.85;54.68;98681.34;5171143;27;20026;-68
2022/08/30 01:24:14;;;;;;;;;;;;;;;23.68;55.11;98683.88;5170838;27;20247;-68
2022/08/30 01:26:39;;;;;;;8.45;4.97;;;;;;;23.56;55.23;98683.81;5171397;27;19958;-67
2022/08/30 01:29:13;;;;;;;14.88;5.30;;;;;;;23.55;55.71;98675.94;5171403;27;20033;-69
2022/08/30 01:31:39;;;;;;;9.43;5.10;;;;;;;23.49;56.21;98674.16;5162184;27;20023;-69
2022/08/30 01:34:06;;;;;;;14.02;7.03;;;;;;;23.46;55.95;98676.25;5167941;27;20044;-69
2022/08/30 01:36:36;;;;;;;12.60;6.10;;;;;;;23.45;56.55;98671.09;5171000;27;20033;-69
2022/08/30 01:39:03;;;;;;;15.73;5.80;;;;;;;23.34;56.43;98669.16;5170473;27;20015;-68
2022/08/30 01:41:34;;;;;;;16.20;6.03;;;;;;;23.32;56.49;98672.06;5171207;27;20026;-69
2022/08/30 01:44:04;;;;;;;9.55;4.65;;;;;;;23.35;56.10;98679.72;5170488;27;20018;-69
2022/08/30 01:46:36;;;;;;;15.60;5.35;;;;;;;23.40;55.64;98684.41;5170909;27;20038;-68
2022/08/30 01:49:04;;;;;;;12.23;5.00;;;;;;;23.43;55.63;98683.97;5171002;27;20048;-68
2022/08/30 01:51:30;;;;;;;14.55;5.13;;;;;;;23.47;55.54;98688.69;5170623;27;20041;-68
2022/08/30 01:53:56;;;;;;;16.73;5.45;;;;;;;23.47;55.71;98680.59;5170856;27;20023;-69
2022/08/30 01:56:24;;;;;;;16.50;5.63;;;;;;;23.49;56.08;98682.25;5170685;27;20030;-67
2022/08/30 01:58:50;;;;;;;15.48;5.50;;;;;;;23.47;55.84;98685.19;5170823;27;20146;-69
2022/08/30 02:01:18;;;;;;;15.57;6.05;;;;;;;23.50;55.92;98684.72;5170836;27;20061;-68
2022/08/30 02:03:45;;;;;;;13.13;6.13;;;;;;;23.46;56.30;98676.25;5170678;27;20098;-68
2022/08/30 02:06:13;;;;;;;13.10;6.03;;;;;;;23.44;55.84;98674.81;5170425;27;20133;-69
2022/08/30 02:08:39;;;;;;;22.52;6.35;;;;;;;23.41;55.64;98669.88;5170571;27;20254;-68
2022/08/30 02:11:06;;;;;;;8.40;4.88;;;;;;;23.42;55.95;98677.78;5170611;27;20045;-69
2022/08/30 02:13:32;;;;;;;10.18;5.75;;;;;;;23.45;55.72;98682.69;5170511;27;20033;-68
2022/08/30 02:15:58;;;;;;;11.38;5.15;;;;;;;23.43;55.74;98675.88;5170221;27;20022;-69
2022/08/30 02:18:25;;;;;;;20.15;6.18;;;;;;;23.40;56.21;98685.25;5170319;27;20093;-68
2022/08/30 02:20:50;;;;;;;12.32;5.90;;;;;;;23.33;56.09;98689.09;5170314;27;20128;-68
2022/08/30 02:23:16;;;;;;;12.88;5.30;;;;;;;23.34;55.67;98685.34;5170572;27;20018;-68
2022/08/30 02:25:42;;;;;;;10.02;5.30;;;;;;;23.39;55.49;98677.38;5169065;27;20151;-69
2022/08/30 02:28:08;;;;;;;11.75;6.50;;;;;;;23.40;56.10;98684.41;5169673;27;20192;-70
2022/08/30 02:30:33;;;;;;;18.80;6.10;;;;;;;23.37;56.32;98691.09;5170279;27;20027;-69
2022/08/30 02:32:59;;;;;;;11.95;5.35;;;;;;;23.29;56.39;98684.13;5149583;27;20050;-69
2022/08/30 02:35:25;;;;;;;14.20;6.18;;;;;;;23.28;56.24;98690.59;5155972;27;20082;-70
2022/08/30 02:37:51;;;;;;;15.30;6.30;;;;;;;23.30;56.35;98690.38;5169790;27;20022;-70
2022/08/30 02:40:17;;;;;;;16.70;5.72;;;;;;;23.29;55.95;98696.81;5170006;27;20025;-70
2022/08/30 02:42:43;;;;;;;16.15;7.00;;;;;;;23.32;56.08;98690.94;5169296;27;20022;-69
2022/08/30 02:45:09;;;;;;;16.83;5.85;;;;;;;23.32;56.42;98693.66;5169262;27;20251;-69
2022/08/30 02:47:35;;;;;;;13.68;6.53;;;;;;;23.28;56.24;98692.47;5169362;27;20066;-68
2022/08/30 02:50:05;;;;;;;14.75;5.60;;;;;;;23.25;56.49;98693.72;5169921;27;20259;-69
2022/08/30 02:52:31;;;;;;;17.67;6.05;;;;;;;23.25;56.18;98699.13;5169421;27;20027;-69
2022/08/30 02:54:56;;;;;;;18.60;6.68;;;;;;;23.23;56.74;98697.69;5169660;27;20045;-69
2022/08/30 02:57:22;;;;;;;11.02;5.60;;;;;;;23.20;56.50;98690.03;5169600;27;20251;-68
2022/08/30 02:59:48;;;;;;;16.02;6.05;;;;;;;23.19;56.37;98688.38;5169524;27;20086;-70
2022/08/30 03:02:14;;;;;;;17.85;6.90;;;;;;;23.19;56.63;98700.00;5169274;27;20086;-68
2022/08/30 03:04:43;;;;;;;13.45;4.95;;;;;;;23.17;56.11;98696.69;5168948;27;20103;-69
2022/08/30 03:07:09;;;;;;;14.00;5.18;;;;;;;23.16;56.09;98703.94;5168523;27;20037;-68
2022/08/30 03:09:35;;;;;;;12.80;6.15;;;;;;;23.23;55.94;98703.09;5157049;27;20062;-67
2022/08/30 03:12:01;;;;;;;10.80;4.88;;;;;;;23.27;55.82;98699.72;5168168;27;20050;-68
2022/08/30 03:14:27;;;;;;;14.68;5.90;;;;;;;23.32;55.84;98696.34;5168856;27;20083;-68
2022/08/30 03:16:54;;;;;;;15.00;6.13;;;;;;;23.30;56.13;98701.16;5169158;27;20239;-67
2022/08/30 03:19:20;;;;;;;21.92;6.70;;;;;;;23.28;56.31;98697.88;5169117;27;20045;-69
2022/08/30 03:21:45;;;;;;;15.20;6.22;;;;;;;23.26;56.04;98699.97;5168482;27;20232;-68
2022/08/30 03:24:12;;;;;;;18.60;6.18;;;;;;;23.28;56.16;98704.06;5169412;27;20020;-69
2022/08/30 03:26:37;;;;;;;14.55;6.53;;;;;;;23.28;56.56;98700.56;5169446;27;20191;-68
2022/08/30 03:29:03;;;;;;;16.13;5.85;;;;;;;23.26;56.32;98694.56;5168243;27;20014;-68
2022/08/30 03:31:29;;;;;;;14.25;6.38;;;;;;;23.24;56.50;98697.47;5168606;27;20022;-69
2022/08/30 03:33:54;;;;;;;16.88;6.47;;;;;;;23.24;56.08;98692.06;5168608;27;20038;-67
2022/08/30 03:36:20;;;;;;;20.95;6.45;;;;;;;23.22;56.51;98699.59;5168482;27;20034;-69
2022/08/30 03:38:46;;;;;;;17.30;6.47;;;;;;;23.21;56.68;98700.63;5169131;27;20145;-68
2022/08/30 03:41:11;;;;;;;18.63;7.00;;;;;;;23.17;56.78;98711.00;5169313;27;20219;-69
2022/08/30 03:43:37;;;;;;;17.45;6.80;;;;;;;23.13;56.66;98704.44;5168377;27;20057;-68
2022/08/30 03:46:03;;;;;;;17.25;6.93;;;;;;;23.14;56.31;98700.69;5169030;27;20046;-69
2022/08/30 03:48:29;;;;;;;14.05;6.07;;;;;;;23.25;56.33;98706.41;5168587;27;20170;-69
2022/08/30 03:50:55;;;;;;;18.23;7.28;;;;;;;23.29;56.05;98700.31;5168507;27;20038;-69
2022/08/30 03:53:21;;;;;;;12.00;6.60;;;;;;;23.31;56.25;98708.19;5169126;27;20079;-69
2022/08/30 03:55:46;;;;;;;16.17;7.68;;;;;;;23.29;56.09;98710.31;5169145;27;20050;-69
2022/08/30 03:58:12;;;;;;;15.70;6.78;;;;;;;23.27;56.21;98707.00;5168490;27;20045;-69
2022/08/30 04:00:38;;;;;;;15.77;7.80;;;;;;;23.19;56.44;98708.09;5171779;27;20031;-68
2022/08/30 04:03:03;;;;;;;24.42;8.63;;;;;;;23.09;56.81;98705.91;5171677;27;20029;-69
2022/08/30 04:05:29;;;;;;;14.70;8.48;;;;;;;23.02;56.92;98711.38;5171773;27;20022;-69
2022/08/30 04:07:54;;;;;;;22.42;8.77;;;;;;;22.98;57.24;98704.75;5171675;27;20018;-69
2022/08/30 04:10:20;;;;;;;11.23;7.15;;;;;;;22.99;56.98;98705.59;5173019;27;20093;-69
2022/08/30 04:12:47;;;;;;;18.88;8.00;;;;;;;23.02;56.98;98710.53;5172684;27;20025;-69
2022/08/30 04:15:13;;;;;;;20.67;8.13;;;;;;;23.02;57.06;98713.22;5172411;27;20050;-68
2022/08/30 04:17:39;;;;;;;13.35;6.70;;;;;;;23.05;56.85;98717.38;5172615;27;20098;-69
2022/08/30 04:20:05;;;;;;;19.25;8.43;;;;;;;23.04;56.90;98716.53;5172409;27;20147;-69
2022/08/30 04:22:31;;;;;;;15.73;7.25;;;;;;;23.07;56.96;98716.09;5171641;27;20027;-69
2022/08/30 04:24:56;;;;;;;17.20;8.20;;;;;;;23.05;57.02;98715.50;5153629;27;20243;-69
2022/08/30 04:27:22;;;;;;;16.65;8.10;;;;;;;23.05;56.59;98714.69;5172060;27;20023;-68
2022/08/30 04:29:47;;;;;;;15.45;8.63;;;;;;;23.03;56.84;98714.88;5172011;27;20030;-69
2022/08/30 04:32:15;;;;;;;22.65;8.73;;;;;;;23.03;57.05;98728.38;5172379;27;20022;-68
2022/08/30 04:34:40;;;;;;;21.75;9.52;;;;;;;23.02;57.04;98714.06;5171839;27;20029;-68
2022/08/30 04:37:06;;;;;;;20.73;9.70;;;;;;;23.02;57.09;98714.06;5172335;27;20019;-68
2022/08/30 04:39:31;;;;;;;18.55;8.82;;;;;;;23.04;56.74;98705.75;5172166;27;20022;-69
2022/08/30 04:41:56;;;;;;;18.38;8.43;;;;;;;23.10;56.96;98712.13;5172246;27;20259;-69
2022/08/30 04:44:22;;;;;;;16.40;8.90;;;;;;;23.17;56.57;98712.88;5171807;27;20098;-69
2022/08/30 04:46:48;;;;;;;18.30;9.57;;;;;;;23.22;56.33;98710.38;5171640;27;20034;-69
2022/08/30 04:49:13;;;;;;;22.80;9.63;;;;;;;23.27;56.46;98720.50;5172065;27;20026;-70
2022/08/30 04:51:39;;;;;;;13.57;8.38;;;;;;;23.30;56.22;98717.38;5172183;27;20101;-69
2022/08/30 04:54:05;;;;;;;14.02;8.55;;;;;;;23.34;56.06;98715.03;5171300;27;20031;-70
2022/08/30 04:56:31;;;;;;;15.68;7.57;;;;;;;23.43;55.49;98717.22;5171241;27;20077;-69
2022/08/30 04:58:57;;;;;;;17.63;8.38;;;;;;;23.50;55.37;98711.72;5171759;27;20015;-69
2022/08/30 05:01:27;;;;;;;23.83;10.50;;;;;;;23.50;55.88;98710.88;5171988;27;20067;-68
2022/08/30 05:03:53;;;;;;;19.40;8.77;;;;;;;23.47;55.96;98706.78;5171387;27;20140;-69
2022/08/30 05:06:20;;;;;;;22.92;8.90;;;;;;;23.56;55.83;98718.09;5171902;27;20037;-69
2022/08/30 05:08:46;;;;;;;17.58;8.18;;;;;;;23.75;55.04;98717.00;5171206;27;20082;-68
2022/08/30 05:11:12;;;;;;;14.57;8.57;;;;;;;23.88;54.92;98716.03;5171497;27;20042;-69
2022/08/30 05:13:38;;;;;;;22.95;9.70;;;;;;;24.18;54.18;98720.63;5171178;27;20018;-69
2022/08/30 05:16:05;;;;;;;18.48;9.10;;;;;;;24.48;53.38;98719.78;5171553;27;20067;-68
2022/08/30 05:18:31;;;;;;;19.27;9.82;;;;;;;24.74;52.42;98725.03;5171368;27;20094;-67
2022/08/30 05:21:08;;;;;;;21.15;9.95;;;;;;;24.98;52.24;98725.84;5170834;27;20147;-68
2022/08/30 05:23:35;;;;;;;13.60;9.07;;;;;;;25.11;51.95;98720.19;5171487;27;20042;-67
2022/08/30 05:26:06;;;;;;;19.25;9.02;;;;;;;25.19;51.38;98729.00;5169503;27;20244;-68
2022/08/30 05:28:32;;;;;;;15.00;9.35;;;;;;;25.26;51.47;98727.03;5171526;27;20015;-68
2022/08/30 05:30:57;;;;;;;15.30;9.63;;;;;;;25.31;51.09;98729.00;5168211;27;20213;-67
2022/08/30 05:33:23;;;;;;;21.20;8.95;;;;;;;25.37;50.84;98723.47;5150477;27;20037;-68
2022/08/30 05:35:48;;;;;;;17.70;9.07;;;;;;;25.53;50.67;98727.34;5150461;27;20027;-68
2022/08/30 05:38:14;;;;;;;19.63;10.07;;;;;;;25.52;50.94;98722.97;5150372;27;20102;-67
2022/08/30 05:40:41;;;;;;;19.60;11.13;;;;;;;25.45;50.85;98727.72;5150497;27;20080;-68
2022/08/30 05:43:08;;;;;;;18.70;10.73;;;;;;;25.39;51.00;98728.63;5150389;27;20236;-68
2022/08/30 05:45:34;;;;;;;20.00;11.10;;;;;;;25.29;51.22;98721.13;5151623;27;20019;-68
2022/08/30 05:48:00;;;;;;;16.80;9.88;;;;;;;25.12;51.51;98729.97;5171004;27;20236;-68
2022/08/30 05:50:26;;;;;;;20.17;12.23;;;;;;;24.90;52.25;98724.31;5170946;27;20010;-68
2022/08/30 05:52:51;;;;;;;20.35;10.75;;;;;;;24.71;52.43;98722.78;5170822;27;20034;-67
2022/08/30 05:55:17;;;;;;;13.90;8.75;;;;;;;24.62;52.86;98731.22;5170967;27;20082;-68
2022/08/30 05:57:43;;;;;;;21.40;10.68;;;;;;;24.62;52.80;98733.91;5171340;27;20079;-68
2022/08/30 06:00:13;;;;;;;17.55;10.35;;;;;;;24.61;53.14;98726.84;5170308;27;20143;-67
2022/08/30 06:02:39;;;;;;;17.33;10.05;;;;;;;24.62;52.72;98728.50;5169659;27;20090;-67
2022/08/30 06:05:05;;;;;;;22.83;10.60;;;;;;;24.60;52.78;98733.31;5170658;27;20109;-67
2022/08/30 06:07:31;;;;;;;17.70;10.88;;;;;;;24.59;52.73;98728.97;5170457;27;20022;-65
2022/08/30 06:09:56;;;;;;;22.92;11.20;;;;;;;24.55;52.86;98738.59;5170153;27;20011;-70
2022/08/30 06:12:22;;;;;;;23.75;11.05;;;;;;;24.57;52.93;98741.06;5169594;27;20014;-71
2022/08/30 06:14:47;;;;;;;20.42;10.82;;;;;;;24.58;52.57;98742.69;5170363;27;20022;-70
2022/08/30 06:17:12;;;;;;;19.88;9.88;;;;;;;24.57;52.61;98744.59;5170271;27;20056;-67
2022/08/30 06:19:38;;;;;;;22.48;10.20;;;;;;;24.58;52.92;98740.84;5169558;27;20019;-67
2022/08/30 06:22:03;;;;;;;20.23;10.75;;;;;;;24.64;52.45;98737.19;5168825;27;20030;-67
2022/08/30 06:24:29;;;;;;;21.88;10.27;;;;;;;24.68;52.47;98746.50;5170160;27;20025;-67
2022/08/30 06:26:54;;;;;;;20.02;10.18;;;;;;;24.72;52.71;98746.06;5170260;27;20018;-70
2022/08/30 06:29:21;;;;;;;18.33;10.50;;;;;;;24.70;52.49;98743.59;5169019;27;20026;-66
2022/08/30 06:31:47;;;;;;;20.77;11.00;;;;;;;24.68;52.77;98741.09;5170021;27;20022;-67
2022/08/30 06:34:15;;;;;;;25.23;11.00;;;;;;;24.67;52.70;98742.13;5170131;27;20025;-67
2022/08/30 06:36:40;;;;;;;19.88;11.43;;;;;;;24.67;52.43;98739.44;5151817;27;20252;-70
2022/08/30 06:39:07;;;;;;;19.05;11.77;;;;;;;24.70;52.70;98745.47;5170026;27;20079;-70
2022/08/30 06:41:34;;;;;;;19.70;10.23;;;;;;;24.71;52.32;98742.53;5169980;27;20146;-70
2022/08/30 06:44:02;;;;;;;16.75;10.45;;;;;;;24.74;52.16;98744.75;5169889;27;20262;-67
2022/08/30 06:46:31;;;;;;;19.23;10.38;;;;;;;24.77;52.09;98732.69;5169890;27;20131;-70
2022/08/30 06:48:57;;;;;;;18.20;10.27;;;;;;;24.80;52.13;98741.13;5169886;27;20023;-70
2022/08/30 06:51:29;;;;;;;17.58;10.95;;;;;;;24.86;52.18;98738.53;5169780;27;20030;-70
2022/08/30 06:53:55;;;;;;;19.50;11.45;;;;;;;24.89;51.77;98749.72;5169678;27;20054;-70
2022/08/30 06:56:21;;;;;;;17.10;10.18;;;;;;;24.89;51.96;98738.91;5169688;27;20011;-70
2022/08/30 06:58:48;;;;;;;23.15;11.07;;;;;;;24.90;51.64;98743.28;5169560;27;20030;-68
2022/08/30 07:01:17;;;;;;;16.42;10.60;;;;;;;24.91;51.77;98725.97;5169676;27;20018;-68
2022/08/30 07:03:43;;;;;;;22.45;10.77;;;;;;;24.95;51.46;98732.53;5169512;27;20045;-68
2022/08/30 07:06:09;;;;;;;23.20;11.75;;;;;;;24.96;51.27;98727.97;5168744;27;20287;-68
2022/08/30 07:08:36;;;;;;;20.92;11.00;;;;;;;24.93;51.54;98741.97;5166937;27;20079;-68
2022/08/30 07:11:04;;;;;;;18.35;10.73;;;;;;;24.90;51.49;98750.53;5169431;27;20223;-68
2022/08/30 07:13:30;;;;;;;20.33;10.55;;;;;;;24.87;51.66;98741.03;5168030;27;20208;-68
2022/08/30 07:15:55;;;;;;;26.60;11.73;;;;;;;24.86;51.67;98742.09;5168364;27;20124;-68
2022/08/30 07:21:12;;;;;;;22.23;10.70;;;;;;;24.90;51.23;98739.72;5169517;27;20070;-69
2022/08/30 07:23:38;;;;;;;22.10;11.43;;;;;;;24.91;51.10;98744.91;5168816;27;20082;-68
2022/08/30 07:26:05;;;;;;;16.88;11.00;;;;;;;24.95;51.23;98748.78;5168831;27;20027;-68
2022/08/30 07:28:31;;;;;;;18.92;10.35;;;;;;;25.02;51.03;98747.84;5169349;27;20019;-68
2022/08/30 07:30:56;;;;;;;21.67;9.98;;;;;;;25.05;50.88;98742.78;5166261;27;20026;-68
2022/08/30 07:33:22;;;;;;;22.85;11.55;;;;;;;25.08;50.95;98750.44;5155148;27;20049;-68
2022/08/30 07:35:47;;;;;;;16.58;9.75;;;;;;;25.10;50.77;98753.75;5173687;27;20015;-68
2022/08/30 07:38:13;;;;;;;21.02;10.85;;;;;;;25.11;50.97;98755.38;5172637;27;20049;-69
2022/08/30 07:40:40;;;;;;;16.40;11.10;;;;;;;25.10;50.70;98750.19;5172288;27;20030;-68
2022/08/30 07:43:05;;;;;;;17.45;10.10;;;;;;;25.10;50.95;98753.75;5173338;27;20026;-68
2022/08/30 07:45:31;;;;;;;13.70;9.82;;;;;;;25.14;50.78;98756.78;5173360;27;20023;-68
2022/08/30 07:47:56;;;;;;;15.02;8.80;;;;;;;25.17;50.69;98759.03;5173236;27;20022;-68
2022/08/30 07:50:22;;;;;;;16.42;10.18;;;;;;;25.21;50.28;98752.09;5172919;27;20071;-69
2022/08/30 07:52:47;;;;;;;16.90;10.45;;;;;;;25.23;50.16;98749.16;5173075;27;20022;-68
2022/08/30 07:55:13;;;;;;;14.20;9.32;;;;;;;25.26;50.15;98760.31;5173374;27;20042;-68
2022/08/30 07:57:39;;;;;;;14.20;9.45;;;;;;;25.29;49.83;98756.34;5173183;27;20022;-69
2022/08/30 08:00:05;;;;;;;22.33;10.98;;;;;;;25.35;49.77;98751.84;5172616;27;20065;-68
2022/08/30 08:02:32;;;;;;;18.27;10.02;;;;;;;25.37;49.78;98755.13;5172824;27;20019;-68
2022/08/30 08:04:57;;;;;;;17.70;11.02;;;;;;;25.41;49.63;98761.72;5173167;27;20018;-68
2022/08/30 08:07:23;;;;;;;20.08;11.57;;;;;;;25.43;49.65;98754.22;5172945;27;20042;-69
2022/08/30 08:09:48;;;;;;;20.48;10.75;;;;;;;25.45;49.48;98754.81;5171190;27;20027;-69
2022/08/30 08:12:14;;;;;;;21.55;10.95;;;;;;;25.49;49.63;98753.28;5171795;27;20311;-69
2022/08/30 08:14:40;;;;;;;17.65;11.38;;;;;;;25.50;49.68;98754.09;5171949;27;20022;-70
2022/08/30 08:17:06;;;;;;;21.88;11.48;;;;;;;25.52;49.54;98755.47;5172651;27;20236;-69
2022/08/30 08:19:31;;;;;;;17.75;11.30;;;;;;;25.53;49.85;98754.41;5172720;27;20026;-69
2022/08/30 08:21:59;;;;;;;20.40;11.40;;;;;;;25.54;49.61;98752.56;5172535;27;20038;-69
2022/08/30 08:24:27;;;;;;;17.15;10.57;;;;;;;25.57;49.54;98746.66;5171836;27;20031;-69
2022/08/30 08:26:53;;;;;;;17.50;9.75;;;;;;;25.59;49.44;98756.19;5172644;27;20042;-70
2022/08/30 08:29:19;;;;;;;18.90;10.38;;;;;;;25.59;49.18;98750.78;5172449;27;20018;-70
2022/08/30 08:31:45;;;;;;;16.25;11.25;;;;;;;25.62;49.21;98748.66;5162560;27;20283;-68
2022/08/30 08:34:11;;;;;;;14.45;10.05;;;;;;;25.64;49.19;98749.25;5161370;27;20247;-71
2022/08/30 08:36:37;;;;;;;17.35;10.20;;;;;;;25.66;49.05;98742.50;5171902;27;20027;-71
2022/08/30 08:39:05;;;;;;;16.88;9.93;;;;;;;25.70;49.10;98742.84;5172162;27;20232;-69
2022/08/30 08:42:04;;;;;;;16.02;10.98;;;;;;;25.72;49.26;98743.44;5172387;27;20031;-69
2022/08/30 08:44:46;;;;;;;24.35;10.20;;;;;;;25.75;49.19;98745.66;5153164;27;20018;-70
2022/08/30 08:47:17;;;;;;;14.55;9.98;;;;;;;25.76;49.10;98744.59;5172223;27;20022;-70
2022/08/30 08:49:45;;;;;;;16.52;10.95;;;;;;;25.77;49.14;98742.72;5172227;27;20091;-69
2022/08/30 08:55:11;;;;;;;15.55;10.85;;;;;;;25.74;48.67;98746.72;5171870;27;20268;-68
2022/08/30 08:57:37;;;;;;;17.73;10.30;;;;;;;25.74;48.56;98744.03;5171950;27;20026;-69
2022/08/30 09:00:09;;;;;;;19.98;11.05;;;;;;;25.75;48.53;98741.06;5171908;27;20234;-69
2022/08/30 09:02:43;;;;;;;21.33;10.63;;;;;;;25.76;48.31;98744.59;5171654;27;20033;-70
2022/08/30 09:05:13;;;;;;;21.25;10.57;;;;;;;25.79;48.14;98751.44;5152522;27;20240;-69
2022/08/30 09:07:47;;;;;;;22.92;12.32;;;;;;;25.78;48.28;98760.63;5171846;27;20023;-68
2022/08/30 09:10:13;;;;;;;22.67;12.57;;;;;;;25.76;48.06;98752.75;5171565;27;20193;-70
2022/08/30 09:12:38;;;;;;;16.42;11.23;;;;;;;25.76;48.02;98760.88;5171263;27;20062;-70
2022/08/30 09:15:21;;;;;;;18.92;12.80;;;;;;;25.76;47.97;98758.16;5171573;27;20038;-70
2022/08/30 09:17:55;;;;;;;19.65;12.07;;;;;;;25.77;47.96;98764.38;5171448;27;20042;-69
2022/08/30 09:20:37;;;;;;;24.00;13.68;;;;;;;25.77;47.59;98754.38;5171733;27;20276;-68
2022/08/30 09:23:31;;;;;;;21.95;13.30;;;;;;;25.75;47.68;98751.09;5161726;27;20045;-68
2022/08/30 09:26:01;;;;;;;18.73;13.07;;;;;;;25.78;47.70;98761.47;5147450;27;20026;-69
2022/08/30 09:28:30;;;;;;;20.07;12.67;;;;;;;25.80;47.66;98762.03;5152572;27;20019;-69
2022/08/30 09:31:49;;;;;;;28.40;14.05;;;;;;;25.81;47.39;98757.44;5151303;27;20031;-69
2022/08/30 09:34:19;;;;;;;15.98;11.73;;;;;;;25.78;47.58;98749.78;5150316;27;20026;-69
2022/08/30 09:36:51;;;;;;;26.00;14.73;;;;;;;25.80;47.29;98759.34;5150180;27;20035;-68
2022/08/30 09:39:16;;;;;;;25.30;14.43;;;;;;;25.81;47.33;98760.94;5150450;27;20031;-69
2022/08/30 09:41:44;;;;;;;21.67;13.35;;;;;;;25.85;47.19;98772.16;5155071;27;20387;-69
2022/08/30 09:44:16;;;;;;;18.45;12.80;;;;;;;25.87;46.96;98762.72;5149994;27;20021;-67
2022/08/30 09:46:50;;;;;;;18.25;13.93;;;;;;;25.89;46.86;98757.88;5150676;27;20026;-69
2022/08/30 09:49:28;;;;;;;18.67;13.98;;;;;;;25.92;47.13;98751.16;5149988;27;20037;-68
2022/08/30 09:52:33;;;;;;;18.80;13.43;;;;;;;25.97;47.07;98753.97;5149892;27;20022;-68
2022/08/30 09:55:13;;;;;;;32.55;15.13;;;;;;;26.03;46.82;98754.88;5167129;27;20018;-68
2022/08/30 09:57:57;;;;;;;17.83;12.32;;;;;;;26.08;47.00;98755.00;5148540;27;20027;-69
2022/08/30 10:00:27;;;;;;;19.40;12.98;;;;;;;26.12;46.97;98761.59;5165847;27;20030;-68
2022/08/30 10:03:14;;;;;;;17.10;14.55;;;;;;;26.15;46.44;98760.31;5168687;27;20018;-70
2022/08/30 10:05:58;;;;;;;21.13;13.63;;;;;;;26.16;46.41;98751.09;5153326;27;20018;-70
2022/08/30 10:08:48;;;;;;;29.42;14.80;;;;;;;26.18;46.58;98757.91;5149500;27;20208;-68
2022/08/30 10:11:26;;;;;;;18.05;12.70;;;;;;;26.20;46.41;98757.66;5149630;27;20034;-69
2022/08/30 10:14:28;;;;;;;23.60;13.90;;;;;;;26.21;46.17;98753.88;5153019;27;20023;-68
2022/08/30 10:17:03;;;;;;;23.30;14.68;;;;;;;26.23;45.88;98756.38;5155483;27;20042;-69
2022/08/30 10:19:50;;;;;;;24.30;14.02;;;;;;;26.22;46.06;98755.53;5155922;27;20026;-71
2022/08/30 10:22:23;;;;;;;25.42;14.77;;;;;;;26.22;45.93;98752.00;5157654;27;20023;-70
2022/08/30 10:24:54;;;;;;;23.13;14.75;;;;;;;26.25;45.82;98754.25;5153942;27;20041;-70
2022/08/30 10:27:28;;;;;;;17.20;13.48;;;;;;;26.26;45.90;98758.56;5153385;27;20039;-70
2022/08/30 10:30:04;;;;;;;22.75;14.57;;;;;;;26.28;45.39;98759.16;5168772;27;20048;-69
2022/08/30 10:32:36;;;;;;;22.90;15.05;;;;;;;26.27;45.41;98757.50;5157250;27;20026;-69
2022/08/30 10:35:10;;;;;;;18.70;13.57;;;;;;;26.25;45.59;98763.19;5149943;27;20034;-70
2022/08/30 10:37:45;;;;;;;22.45;13.82;;;;;;;26.27;45.51;98757.50;5151954;27;20019;-69
2022/08/30 10:43:48;;;;;;;24.88;14.30;;;;;;;26.28;44.95;98756.44;5160548;27;20017;-69
2022/08/30 10:46:23;;;;;;;21.88;13.40;;;;;;;26.31;44.74;98758.69;5149067;27;20316;-68
2022/08/30 10:48:49;;;;;;;20.80;14.15;;;;;;;26.34;44.75;98755.47;5154146;27;20131;-69
2022/08/30 10:51:41;;;;;;;23.23;13.48;;;;;;;26.35;44.76;98751.72;5168406;27;20014;-68
2022/08/30 10:54:15;;;;;;;24.85;13.93;;;;;;;26.38;45.02;98753.94;5146959;27;20031;-69
2022/08/30 10:56:42;;;;;;;24.23;14.55;;;;;;;26.42;44.89;98757.78;5164398;27;20031;-69
2022/08/30 10:59:08;;;;;;;20.25;13.57;;;;;;;26.44;44.79;98755.66;5168133;27;20022;-68
2022/08/30 11:01:52;;;;;;;21.40;14.25;;;;;;;26.45;45.02;98754.59;5168237;27;20139;-69
2022/08/30 11:04:32;;;;;;;21.08;13.50;;;;;;;26.48;44.84;98758.69;5157925;27;20047;-68
2022/08/30 11:07:05;;;;;;;19.42;12.82;;;;;;;26.47;45.06;98757.09;5153427;27;20022;-69
2022/08/30 11:09:53;;;;;;;18.60;13.73;;;;;;;26.49;44.89;98753.03;5157209;27;20090;-69
2022/08/30 11:12:31;;;;;;;21.00;14.73;;;;;;;26.48;45.03;98751.41;5151728;27;20076;-67
2022/08/30 11:14:59;;;;;;;22.27;13.95;;;;;;;26.50;44.97;98748.44;5156264;27;20023;-69
2022/08/30 11:17:34;;;;;;;20.52;13.32;;;;;;;26.51;44.98;98747.38;5148460;27;20145;-67
2022/08/30 11:20:01;;;;;;;25.02;14.35;;;;;;;26.52;44.80;98753.63;5149585;27;20064;-68
2022/08/30 11:22:27;;;;;;;22.48;13.40;;;;;;;26.52;43.71;98748.19;5149636;27;20033;-69
2022/08/30 11:25:10;;;;;;;20.67;11.98;;;;;;;26.53;43.16;98742.53;5151402;27;20018;-67
2022/08/30 11:27:41;;;;;;;19.92;13.02;;;;;;;26.53;43.45;98747.13;5148456;27;20019;-70
2022/08/30 11:30:25;;;;;;;19.25;12.75;;;;;;;26.53;43.64;98737.09;5148468;27;20174;-68
2022/08/30 11:33:09;;;;;;;20.05;11.95;;;;;;;26.54;43.47;98746.06;5151819;27;20033;-66
2022/08/30 11:35:51;;;;;;;20.15;13.10;;;;;;;26.55;43.71;98750.41;5167556;27;20045;-76
2022/08/30 11:38:25;;;;;;;19.88;13.20;;;;;;;26.55;43.54;98750.41;5161436;27;20185;-69
2022/08/30 11:41:27;;;;;;;27.20;12.50;;;;;;;26.54;43.63;98746.06;5168808;27;20194;-72